Time;durP1;ratioP1;P1;durP2;ratioP2;P2;SDS_P1;SDS_P2;PMS_P1;PMS_P2;Temp;Humidity;BMP_temperature;BMP_pressure;BME280_temperature;BME280_humidity;BME280_pressure;Samples;Min_cycle;Max_cycle;Signal;HPM_P1;HPM_P2
2021/05/16 00:00:35;;;;;;;3.63;1.80;;;26.50;99.90;;;;;;5017637;28;20287;-88
2021/05/16 00:03:06;;;;;;;4.87;1.70;;;26.80;99.90;;;;;;5017266;28;20217;-89
2021/05/16 00:05:39;;;;;;;4.37;1.80;;;26.40;99.90;;;;;;5031263;28;20697;-89
2021/05/16 00:08:10;;;;;;;4.53;1.67;;;26.50;99.90;;;;;;5037355;28;20603;-88
2021/05/16 00:10:41;;;;;;;4.60;1.80;;;26.70;99.90;;;;;;5036022;28;20271;-89
2021/05/16 00:13:12;;;;;;;8.50;2.00;;;26.80;99.90;;;;;;5036341;28;20283;-89
2021/05/16 00:15:44;;;;;;;4.20;1.93;;;26.80;99.70;;;;;;5036667;28;20220;-89
2021/05/16 00:18:15;;;;;;;2.53;1.70;;;26.70;99.90;;;;;;5037584;28;20543;-90
2021/05/16 00:20:48;;;;;;;4.33;1.70;;;26.70;99.90;;;;;;5036787;28;20228;-89
2021/05/16 00:23:18;;;;;;;5.17;2.10;;;26.60;99.90;;;;;;5040409;28;20292;-90
2021/05/16 00:25:49;;;;;;;4.57;1.70;;;26.60;99.90;;;;;;5055874;28;20218;-89
2021/05/16 00:28:20;;;;;;;6.20;2.20;;;26.60;99.90;;;;;;5066684;28;20203;-91
2021/05/16 00:30:52;;;;;;;6.70;2.07;;;26.40;99.90;;;;;;5074644;28;20189;-90
2021/05/16 00:33:22;;;;;;;7.10;1.77;;;26.30;99.90;;;;;;5056469;28;20229;-89
2021/05/16 00:35:55;;;;;;;4.47;1.53;;;26.40;99.90;;;;;;5048761;28;20223;-90
2021/05/16 00:38:28;;;;;;;4.97;1.80;;;26.50;99.40;;;;;;5043067;28;20205;-90
2021/05/16 00:40:58;;;;;;;5.57;1.87;;;26.50;99.40;;;;;;5052658;28;20181;-90
2021/05/16 00:43:29;;;;;;;3.43;1.83;;;26.30;99.70;;;;;;5056578;28;20205;-90
2021/05/16 00:46:01;;;;;;;5.77;1.87;;;26.20;99.90;;;;;;5055688;28;20235;-89
2021/05/16 00:48:32;;;;;;;3.73;1.90;;;26.20;99.90;;;;;;5030671;28;20251;-89
2021/05/16 00:51:05;;;;;;;4.37;1.60;;;26.20;99.90;;;;;;5048914;28;20201;-89
2021/05/16 00:53:36;;;;;;;4.03;1.57;;;26.20;99.90;;;;;;5044751;28;20292;-89
2021/05/16 00:56:07;;;;;;;4.93;1.90;;;26.10;99.90;;;;;;5037382;28;20205;-90
2021/05/16 00:58:37;;;;;;;5.10;1.90;;;26.30;99.90;;;;;;5034892;28;20275;-89
2021/05/16 01:01:09;;;;;;;5.50;1.70;;;26.70;99.90;;;;;;5034404;28;20244;-88
2021/05/16 01:03:40;;;;;;;4.70;1.73;;;27.30;99.90;;;;;;5035968;28;20235;-89
2021/05/16 01:06:13;;;;;;;5.13;1.60;;;28.10;99.90;;;;;;5034395;28;20235;-89
2021/05/16 01:08:47;;;;;;;3.37;1.50;;;28.50;98.80;;;;;;5034522;28;20292;-89
2021/05/16 01:11:18;;;;;;;2.33;1.30;;;28.80;98.20;;;;;;5033850;28;20213;-89
2021/05/16 01:13:50;;;;;;;4.27;1.53;;;28.80;97.50;;;;;;5033850;28;20823;-89
2021/05/16 01:16:21;;;;;;;2.87;1.40;;;29.10;97.10;;;;;;5034890;28;20232;-89
2021/05/16 01:18:53;;;;;;;2.27;1.47;;;29.10;96.80;;;;;;5035833;28;20213;-89
2021/05/16 01:21:24;;;;;;;3.60;1.57;;;29.10;96.40;;;;;;5034955;28;20669;-89
2021/05/16 01:23:55;;;;;;;3.20;1.80;;;29.10;95.60;;;;;;5036235;28;20215;-88
2021/05/16 01:26:27;;;;;;;4.13;1.80;;;29.20;95.50;;;;;;5035874;28;20193;-88
2021/05/16 01:28:59;;;;;;;4.27;1.40;;;29.30;95.90;;;;;;5036636;28;20240;-89
2021/05/16 01:31:30;;;;;;;4.23;1.37;;;29.20;95.00;;;;;;5034621;28;20212;-88
2021/05/16 01:34:01;;;;;;;9.67;1.67;;;29.00;94.20;;;;;;5034964;28;20319;-89
2021/05/16 01:36:33;;;;;;;2.37;1.20;;;29.20;93.60;;;;;;5037455;28;20676;-89
2021/05/16 01:39:08;;;;;;;2.57;1.27;;;29.10;93.20;;;;;;5035400;28;20262;-89
2021/05/16 01:41:40;;;;;;;2.33;1.37;;;29.10;93.90;;;;;;5034104;28;20212;-90
2021/05/16 01:44:12;;;;;;;3.43;1.30;;;29.10;93.00;;;;;;5036462;28;20670;-90
2021/05/16 01:46:45;;;;;;;2.77;1.23;;;29.00;93.30;;;;;;5035291;28;20251;-89
2021/05/16 01:49:15;;;;;;;5.97;1.70;;;28.80;93.70;;;;;;5028393;28;20235;-89
2021/05/16 01:51:48;;;;;;;3.93;1.50;;;28.90;93.20;;;;;;5055690;28;20627;-89
2021/05/16 01:54:19;;;;;;;3.10;1.30;;;28.60;93.00;;;;;;5039379;28;20718;-90
2021/05/16 01:56:49;;;;;;;4.70;1.63;;;28.50;93.10;;;;;;5055140;28;20208;-90
2021/05/16 01:59:20;;;;;;;3.13;1.63;;;28.60;92.50;;;;;;5055008;28;20220;-87
2021/05/16 02:01:50;;;;;;;2.87;1.07;;;28.20;92.50;;;;;;5054658;28;20207;-90
2021/05/16 02:04:20;;;;;;;2.77;1.47;;;27.30;92.20;;;;;;5055276;28;20208;-90
2021/05/16 02:06:52;;;;;;;5.07;1.80;;;26.20;93.30;;;;;;5055877;28;20239;-91
2021/05/16 02:09:22;;;;;;;4.60;1.67;;;25.50;94.30;;;;;;5055511;28;20208;-91
2021/05/16 02:11:53;;;;;;;4.00;1.60;;;24.70;94.60;;;;;;5054259;28;20208;-91
2021/05/16 02:14:27;;;;;;;5.60;2.00;;;24.30;94.90;;;;;;5055832;28;20599;-91
2021/05/16 02:16:59;;;;;;;5.30;1.90;;;24.00;98.30;;;;;;5055314;28;20618;-91
2021/05/16 02:19:30;;;;;;;4.23;1.93;;;23.70;99.90;;;;;;5055455;28;20593;-91
2021/05/16 02:22:03;;;;;;;5.43;2.20;;;23.30;99.90;;;;;;5054491;28;20315;-91
2021/05/16 02:24:35;;;;;;;4.63;1.90;;;23.00;99.90;;;;;;5059045;28;20682;-91
2021/05/16 02:27:07;;;;;;;6.60;2.10;;;22.70;99.90;;;;;;5055200;28;20212;-91
2021/05/16 02:29:38;;;;;;;6.90;1.80;;;22.60;99.90;;;;;;5055729;28;20262;-92
2021/05/16 02:32:10;;;;;;;4.10;2.10;;;22.40;99.90;;;;;;5056788;28;20212;-91
2021/05/16 02:34:41;;;;;;;6.03;2.33;;;22.30;99.90;;;;;;5056320;28;20274;-92
2021/05/16 02:37:14;;;;;;;4.03;1.70;;;22.20;99.90;;;;;;5043243;28;20262;-91
2021/05/16 02:39:45;;;;;;;3.43;1.73;;;22.20;99.90;;;;;;5056679;28;20268;-92
2021/05/16 02:42:15;;;;;;;5.47;1.93;;;22.10;99.90;;;;;;5024336;28;20610;-92
2021/05/16 02:44:46;;;;;;;3.03;1.90;;;21.90;99.90;;;;;;5042181;28;20224;-92
2021/05/16 02:47:17;;;;;;;6.07;2.43;;;21.80;99.90;;;;;;5039788;28;20296;-92
2021/05/16 02:49:48;;;;;;;4.30;1.60;;;21.70;99.90;;;;;;5040673;28;20618;-91
2021/05/16 02:52:21;;;;;;;4.10;1.87;;;21.60;99.90;;;;;;5040105;28;20236;-91
2021/05/16 02:54:51;;;;;;;5.40;2.60;;;21.40;99.90;;;;;;5058872;28;20251;-92
2021/05/16 02:57:22;;;;;;;6.77;2.03;;;21.30;99.90;;;;;;5058793;28;20201;-93
2021/05/16 02:59:53;;;;;;;5.47;2.03;;;21.20;99.90;;;;;;5054939;28;20213;-91
2021/05/16 03:02:24;;;;;;;3.87;2.07;;;21.10;99.90;;;;;;5040515;28;20213;-91
2021/05/16 03:04:55;;;;;;;3.50;1.90;;;21.00;99.90;;;;;;5041043;28;20283;-92
2021/05/16 03:07:28;;;;;;;5.37;1.90;;;20.80;99.90;;;;;;5022485;28;20209;-90
2021/05/16 03:10:00;;;;;;;5.10;2.10;;;20.70;99.90;;;;;;5022099;28;20213;-90
2021/05/16 03:12:31;;;;;;;4.13;2.17;;;20.50;99.90;;;;;;5039106;28;20263;-91
2021/05/16 03:15:03;;;;;;;3.67;2.20;;;20.40;99.90;;;;;;5041198;28;20271;-91
2021/05/16 03:17:34;;;;;;;4.37;2.20;;;20.40;99.90;;;;;;5040106;28;20232;-91
2021/05/16 03:20:05;;;;;;;4.03;2.10;;;20.30;99.90;;;;;;5038663;28;20255;-93
2021/05/16 03:22:38;;;;;;;4.70;2.07;;;20.10;99.90;;;;;;5038259;28;20213;-91
2021/05/16 03:25:12;;;;;;;5.47;2.20;;;20.00;99.90;;;;;;5038212;28;20271;-91
2021/05/16 03:27:43;;;;;;;4.30;2.00;;;19.90;99.90;;;;;;5038135;28;20296;-91
2021/05/16 03:30:15;;;;;;;4.00;1.97;;;19.80;99.90;;;;;;5020541;28;20232;-91
2021/05/16 03:32:47;;;;;;;4.17;1.77;;;19.60;99.90;;;;;;5040748;28;20274;-91
2021/05/16 03:35:18;;;;;;;3.00;1.90;;;19.50;99.90;;;;;;5038654;28;20236;-91
2021/05/16 03:37:50;;;;;;;5.93;1.90;;;19.30;99.90;;;;;;5038191;28;20291;-92
2021/05/16 03:40:21;;;;;;;4.33;2.07;;;19.20;99.90;;;;;;5020233;28;20209;-91
2021/05/16 03:42:52;;;;;;;4.17;1.80;;;19.00;99.90;;;;;;5038243;28;20201;-91
2021/05/16 03:45:23;;;;;;;3.17;1.87;;;18.90;99.90;;;;;;5053025;28;20200;-92
2021/05/16 03:47:54;;;;;;;3.83;1.53;;;18.60;99.90;;;;;;5059686;28;20224;-91
2021/05/16 03:50:24;;;;;;;4.27;1.90;;;18.50;99.90;;;;;;5057405;28;20208;-91
2021/05/16 03:52:57;;;;;;;5.33;1.63;;;18.50;99.90;;;;;;5040227;28;20235;-91
2021/05/16 03:55:27;;;;;;;5.83;1.90;;;18.40;99.90;;;;;;5048404;28;20268;-91
2021/05/16 03:57:59;;;;;;;6.47;2.67;;;18.20;99.90;;;;;;5038049;28;20633;-90
2021/05/16 04:00:29;;;;;;;3.97;2.27;;;18.20;99.90;;;;;;5037821;28;20209;-91
2021/05/16 04:03:00;;;;;;;4.67;2.50;;;18.10;99.90;;;;;;5037829;28;20221;-90
2021/05/16 04:05:31;;;;;;;5.70;2.57;;;17.90;99.90;;;;;;5037801;28;20275;-90
2021/05/16 04:08:03;;;;;;;6.10;2.30;;;17.70;99.90;;;;;;5038958;28;20205;-90
2021/05/16 04:10:33;;;;;;;6.70;2.10;;;17.50;99.90;;;;;;5040414;28;20213;-90
2021/05/16 04:13:03;;;;;;;3.10;1.87;;;17.40;99.90;;;;;;5048934;28;20205;-91
2021/05/16 04:15:34;;;;;;;3.53;2.57;;;17.30;99.90;;;;;;5044810;28;20285;-91
2021/05/16 04:18:18;;;;;;;3.60;2.13;;;17.20;99.90;;;;;;5039465;28;20209;-91
2021/05/16 04:20:48;;;;;;;5.27;2.00;;;17.10;99.90;;;;;;5038848;28;20208;-89
2021/05/16 04:23:21;;;;;;;6.00;2.27;;;17.10;99.90;;;;;;5038228;28;20221;-90
2021/05/16 04:25:52;;;;;;;3.30;2.00;;;17.10;99.90;;;;;;5038095;28;20237;-90
2021/05/16 04:28:23;;;;;;;5.93;2.10;;;16.90;99.90;;;;;;5021314;28;20213;-91
2021/05/16 04:30:54;;;;;;;6.00;2.13;;;16.80;99.90;;;;;;5038274;28;20284;-91
2021/05/16 04:33:25;;;;;;;3.83;2.00;;;16.70;99.90;;;;;;5046353;28;20213;-90
2021/05/16 04:35:58;;;;;;;4.03;1.77;;;16.60;99.90;;;;;;5045448;28;20209;-91
2021/05/16 04:38:30;;;;;;;3.90;2.30;;;16.60;99.90;;;;;;5038295;28;20264;-91
2021/05/16 04:41:02;;;;;;;3.53;2.00;;;16.50;99.90;;;;;;5037346;28;20575;-91
2021/05/16 04:43:34;;;;;;;5.40;1.90;;;16.40;99.90;;;;;;5037322;28;20209;-91
2021/05/16 04:46:05;;;;;;;3.50;2.07;;;16.40;99.90;;;;;;5037284;28;20197;-91
2021/05/16 04:48:36;;;;;;;3.83;1.80;;;16.30;99.90;;;;;;5037794;28;20247;-91
2021/05/16 04:51:08;;;;;;;5.43;1.97;;;16.30;99.90;;;;;;5037078;28;20228;-91
2021/05/16 04:53:40;;;;;;;5.23;2.27;;;16.20;99.90;;;;;;5019744;28;20616;-91
2021/05/16 04:56:11;;;;;;;6.73;2.00;;;16.20;99.90;;;;;;5037247;28;20232;-91
2021/05/16 04:58:41;;;;;;;6.37;2.57;;;16.10;99.90;;;;;;5036493;28;20235;-91
2021/05/16 05:01:11;;;;;;;6.70;1.80;;;16.10;99.90;;;;;;5036430;28;20243;-91
2021/05/16 05:03:42;;;;;;;5.37;1.90;;;16.00;99.90;;;;;;5037442;28;20255;-91
2021/05/16 05:06:13;;;;;;;4.40;2.13;;;16.00;99.90;;;;;;5036614;28;20235;-91
2021/05/16 05:08:46;;;;;;;5.80;2.27;;;15.90;99.90;;;;;;5036628;28;20610;-91
2021/05/16 05:11:17;;;;;;;4.53;2.17;;;15.90;99.90;;;;;;5037451;28;20201;-91
2021/05/16 05:13:47;;;;;;;6.87;2.10;;;15.80;99.90;;;;;;5021105;28;20205;-91
2021/05/16 05:16:18;;;;;;;5.63;2.27;;;15.80;99.90;;;;;;5041504;28;20231;-91
2021/05/16 05:18:50;;;;;;;4.30;2.00;;;15.70;99.90;;;;;;5046355;28;20189;-91
2021/05/16 05:21:20;;;;;;;4.33;1.77;;;15.70;99.90;;;;;;5035479;28;20194;-90
2021/05/16 05:23:53;;;;;;;3.73;2.10;;;15.60;99.90;;;;;;5028168;28;20288;-90
2021/05/16 05:26:24;;;;;;;3.63;1.77;;;15.60;99.90;;;;;;5016554;28;20209;-91
2021/05/16 05:28:56;;;;;;;5.80;1.87;;;15.50;99.90;;;;;;5017158;28;20242;-91
2021/05/16 05:31:27;;;;;;;3.47;2.10;;;15.50;99.90;;;;;;5016811;28;20798;-91
2021/05/16 05:33:57;;;;;;;3.07;1.80;;;15.40;99.90;;;;;;5016801;28;20209;-90
2021/05/16 05:36:31;;;;;;;5.53;2.20;;;15.40;99.90;;;;;;5016542;28;20218;-92
2021/05/16 05:39:04;;;;;;;2.90;1.83;;;15.30;99.90;;;;;;5016183;28;20244;-92
2021/05/16 05:41:35;;;;;;;4.03;2.10;;;15.30;99.90;;;;;;5015585;28;20197;-91
2021/05/16 05:44:06;;;;;;;3.90;2.03;;;15.30;99.90;;;;;;5015979;28;20233;-91
2021/05/16 05:46:37;;;;;;;3.83;2.33;;;15.30;99.90;;;;;;5021526;28;20330;-92
2021/05/16 05:49:08;;;;;;;3.50;1.97;;;15.30;99.90;;;;;;5036203;28;20205;-92
2021/05/16 05:51:39;;;;;;;3.43;2.10;;;15.20;99.90;;;;;;5019444;28;20213;-92
2021/05/16 05:54:11;;;;;;;4.33;2.07;;;15.20;99.90;;;;;;5039183;28;20216;-92
2021/05/16 05:56:42;;;;;;;5.13;1.90;;;15.20;99.90;;;;;;5037449;28;20262;-92
2021/05/16 05:59:13;;;;;;;4.10;2.20;;;15.20;99.90;;;;;;5037282;28;20236;-91
2021/05/16 06:01:44;;;;;;;3.33;1.77;;;15.10;99.90;;;;;;5040469;28;20216;-91
2021/05/16 06:04:14;;;;;;;6.13;2.30;;;15.10;99.90;;;;;;5055979;28;20232;-92
2021/05/16 06:06:44;;;;;;;3.97;1.70;;;15.10;99.90;;;;;;5056026;28;20227;-91
2021/05/16 06:09:17;;;;;;;2.53;2.07;;;15.00;99.90;;;;;;5055400;28;20189;-90
2021/05/16 06:11:48;;;;;;;3.10;2.20;;;15.00;99.90;;;;;;5036009;28;20193;-91
2021/05/16 06:14:18;;;;;;;4.00;2.00;;;14.90;99.90;;;;;;5051717;28;20216;-91
2021/05/16 06:16:50;;;;;;;5.77;2.50;;;14.80;99.90;;;;;;5051182;28;20204;-91
2021/05/16 06:19:21;;;;;;;3.03;2.30;;;14.70;99.90;;;;;;5040193;28;20220;-91
2021/05/16 06:21:52;;;;;;;4.23;2.70;;;14.70;99.90;;;;;;5041332;28;20213;-90
2021/05/16 06:24:26;;;;;;;4.87;3.00;;;14.70;99.90;;;;;;5040519;28;20208;-91
2021/05/16 06:26:57;;;;;;;5.53;3.17;;;14.60;99.90;;;;;;5040202;28;20209;-91
2021/05/16 06:29:28;;;;;;;4.27;2.77;;;14.50;99.90;;;;;;5040341;28;20220;-91
2021/05/16 06:31:59;;;;;;;5.60;2.40;;;14.50;99.90;;;;;;5039631;28;20232;-92
2021/05/16 06:34:32;;;;;;;5.63;2.60;;;14.40;99.90;;;;;;5040727;28;20626;-91
2021/05/16 06:37:03;;;;;;;3.20;2.60;;;14.40;99.90;;;;;;5040017;28;20240;-91
2021/05/16 06:39:36;;;;;;;3.93;2.47;;;14.30;99.90;;;;;;5039276;28;20213;-92
2021/05/16 06:42:08;;;;;;;5.97;2.90;;;14.30;99.90;;;;;;5039191;28;20244;-92
2021/05/16 06:44:38;;;;;;;5.63;2.80;;;14.20;99.90;;;;;;5040187;28;20217;-92
2021/05/16 06:47:10;;;;;;;4.57;2.50;;;14.20;99.90;;;;;;5039498;28;20290;-92
2021/05/16 06:49:42;;;;;;;4.20;2.20;;;14.20;99.90;;;;;;5023355;28;20291;-91
2021/05/16 06:52:12;;;;;;;5.80;2.63;;;14.20;99.90;;;;;;5040322;28;20228;-90
2021/05/16 06:54:44;;;;;;;4.63;2.97;;;14.10;99.90;;;;;;5042758;28;20312;-91
2021/05/16 06:57:15;;;;;;;3.50;2.57;;;14.00;99.90;;;;;;5041381;28;20591;-94
2021/05/16 06:59:45;;;;;;;6.53;3.30;;;14.00;99.90;;;;;;5041145;28;20216;-91
2021/05/16 07:02:16;;;;;;;4.70;3.37;;;14.10;99.90;;;;;;5042643;28;20201;-90
2021/05/16 07:04:48;;;;;;;9.77;3.43;;;14.00;99.90;;;;;;5025889;28;20222;-90
2021/05/16 07:07:20;;;;;;;4.77;3.07;;;14.10;99.90;;;;;;5042321;28;20220;-89
2021/05/16 07:09:52;;;;;;;4.13;3.03;;;14.10;99.90;;;;;;5038727;28;20225;-91
2021/05/16 07:12:23;;;;;;;4.27;3.00;;;14.10;99.90;;;;;;5039707;28;20581;-89
2021/05/16 07:14:54;;;;;;;6.20;3.27;;;14.00;99.90;;;;;;5039576;28;20228;-90
2021/05/16 07:17:25;;;;;;;9.07;3.47;;;13.90;99.90;;;;;;5040894;28;20205;-90
2021/05/16 07:19:56;;;;;;;4.93;3.17;;;13.80;99.90;;;;;;5045544;28;20232;-90
2021/05/16 07:22:28;;;;;;;5.93;3.73;;;13.70;99.90;;;;;;5045704;28;20205;-90
2021/05/16 07:25:00;;;;;;;4.57;3.57;;;13.60;99.90;;;;;;5045642;28;20229;-90
2021/05/16 07:27:32;;;;;;;6.70;3.43;;;13.60;99.90;;;;;;5024558;28;20201;-89
2021/05/16 07:30:04;;;;;;;10.47;3.20;;;13.50;99.90;;;;;;5043908;28;20231;-93
2021/05/16 07:32:35;;;;;;;5.47;3.13;;;13.50;99.90;;;;;;5047700;28;20213;-90
2021/05/16 07:35:07;;;;;;;8.80;4.10;;;13.40;99.90;;;;;;5056065;28;20224;-91
2021/05/16 07:37:39;;;;;;;5.40;3.57;;;13.40;99.90;;;;;;5053958;28;20201;-91
2021/05/16 07:40:14;;;;;;;7.97;3.40;;;13.30;99.90;;;;;;5055036;28;20196;-92
2021/05/16 07:42:45;;;;;;;6.20;3.33;;;13.30;99.90;;;;;;5058526;28;20211;-90
2021/05/16 07:45:16;;;;;;;7.43;3.37;;;13.30;99.90;;;;;;5057594;28;20212;-89
2021/05/16 07:47:47;;;;;;;4.30;3.43;;;13.30;99.90;;;;;;5043819;28;20216;-90
2021/05/16 07:50:19;;;;;;;6.07;3.03;;;13.20;99.90;;;;;;5039671;28;20700;-90
2021/05/16 07:52:50;;;;;;;5.67;4.00;;;13.10;99.90;;;;;;5056572;28;20204;-91
2021/05/16 07:55:22;;;;;;;5.17;3.47;;;13.10;99.90;;;;;;5058781;28;20765;-90
2021/05/16 07:57:54;;;;;;;4.33;3.50;;;13.00;99.90;;;;;;5058328;28;20726;-90
2021/05/16 08:00:24;;;;;;;4.13;3.40;;;13.00;99.90;;;;;;5057575;28;20247;-90
2021/05/16 08:02:57;;;;;;;6.93;3.57;;;13.00;99.90;;;;;;5040775;28;20235;-90
2021/05/16 08:05:29;;;;;;;5.80;3.60;;;13.00;99.90;;;;;;5058617;28;20243;-90
2021/05/16 08:08:00;;;;;;;4.73;3.57;;;12.90;99.90;;;;;;5058828;28;20576;-90
2021/05/16 08:10:33;;;;;;;5.63;3.30;;;12.90;99.90;;;;;;5056876;28;20273;-90
2021/05/16 08:13:04;;;;;;;8.47;3.40;;;12.80;99.90;;;;;;5040645;28;20248;-90
2021/05/16 08:15:34;;;;;;;6.47;4.00;;;12.90;99.90;;;;;;5057086;28;20232;-89
2021/05/16 08:18:06;;;;;;;7.20;3.73;;;12.80;99.90;;;;;;5057084;28;20197;-90
2021/05/16 08:20:38;;;;;;;8.17;4.20;;;12.80;99.90;;;;;;5056802;28;20284;-90
2021/05/16 08:23:08;;;;;;;5.60;3.90;;;12.70;99.90;;;;;;5039965;28;20219;-90
2021/05/16 08:25:40;;;;;;;5.17;3.73;;;12.70;99.90;;;;;;5056841;28;20296;-89
2021/05/16 08:28:11;;;;;;;5.23;4.33;;;12.70;99.90;;;;;;5056672;28;20266;-90
2021/05/16 08:30:42;;;;;;;9.20;4.33;;;12.60;99.90;;;;;;5057042;28;20731;-90
2021/05/16 08:33:12;;;;;;;5.57;3.67;;;12.40;99.90;;;;;;5056162;28;20624;-91
2021/05/16 08:35:44;;;;;;;6.40;4.07;;;12.40;99.90;;;;;;5056806;28;20255;-91
2021/05/16 08:38:14;;;;;;;7.53;4.00;;;12.40;99.90;;;;;;5050615;28;20262;-91
2021/05/16 08:40:47;;;;;;;5.90;3.40;;;12.30;99.90;;;;;;5037135;28;20728;-91
2021/05/16 08:43:18;;;;;;;4.07;3.33;;;12.30;99.90;;;;;;5000496;28;20209;-91
2021/05/16 08:45:49;;;;;;;5.57;3.60;;;12.30;99.90;;;;;;5016265;28;20281;-91
2021/05/16 08:48:20;;;;;;;6.40;3.87;;;12.30;99.90;;;;;;5017433;28;20209;-91
2021/05/16 08:50:51;;;;;;;7.33;4.10;;;12.30;99.90;;;;;;5016202;28;20208;-91
2021/05/16 08:53:22;;;;;;;6.03;3.70;;;12.40;99.90;;;;;;5024745;28;20201;-91
2021/05/16 08:55:55;;;;;;;6.67;3.50;;;12.40;99.90;;;;;;5036796;28;20228;-90
2021/05/16 08:58:27;;;;;;;6.07;3.53;;;12.40;99.90;;;;;;5036389;28;20235;-90
2021/05/16 09:00:59;;;;;;;5.30;3.90;;;12.40;99.90;;;;;;5019336;28;20251;-90
2021/05/16 09:03:30;;;;;;;5.70;3.73;;;12.30;99.90;;;;;;5036997;28;20263;-90
2021/05/16 09:06:01;;;;;;;7.00;3.80;;;12.30;99.90;;;;;;5036639;28;20251;-90
2021/05/16 09:08:31;;;;;;;8.17;3.60;;;12.20;99.90;;;;;;5036794;28;20275;-89
2021/05/16 09:11:04;;;;;;;7.63;4.10;;;12.20;99.90;;;;;;5035860;28;20243;-90
2021/05/16 09:13:37;;;;;;;7.83;3.93;;;12.20;99.90;;;;;;5022305;28;20209;-90
2021/05/16 09:16:13;;;;;;;5.13;3.20;;;12.10;99.90;;;;;;5037810;28;20224;-90
2021/05/16 09:18:47;;;;;;;6.57;3.70;;;12.20;99.90;;;;;;5037264;28;20251;-90
2021/05/16 09:21:31;;;;;;;4.40;3.30;;;12.10;99.90;;;;;;5035999;28;20291;-90
2021/05/16 09:24:16;;;;;;;5.33;3.57;;;12.10;99.90;;;;;;5036588;28;20201;-90
2021/05/16 09:26:58;;;;;;;5.40;3.23;;;12.10;99.90;;;;;;5036741;28;20233;-90
2021/05/16 09:29:33;;;;;;;9.43;3.60;;;12.00;99.90;;;;;;5036067;28;20265;-91
2021/05/16 09:32:05;;;;;;;5.13;2.90;;;12.10;99.90;;;;;;5035493;28;20204;-90
2021/05/16 09:34:38;;;;;;;8.27;3.50;;;12.10;99.90;;;;;;5019383;28;20205;-91
2021/05/16 09:37:09;;;;;;;6.30;3.13;;;12.00;99.90;;;;;;5036201;28;20236;-91
2021/05/16 09:39:40;;;;;;;4.07;3.40;;;12.00;99.90;;;;;;5020066;28;20697;-90
2021/05/16 09:42:15;;;;;;;6.10;3.60;;;12.00;99.90;;;;;;5037056;28;20232;-91
2021/05/16 09:44:48;;;;;;;5.97;3.27;;;11.90;99.90;;;;;;5038048;28;20265;-91
2021/05/16 09:47:21;;;;;;;8.97;3.60;;;11.90;99.90;;;;;;5039553;28;20271;-91
2021/05/16 09:49:54;;;;;;;4.90;3.23;;;11.90;99.90;;;;;;5043977;28;20583;-91
2021/05/16 09:52:28;;;;;;;3.73;2.97;;;11.90;99.90;;;;;;5025974;28;20217;-90
2021/05/16 09:55:02;;;;;;;6.10;2.90;;;11.80;99.90;;;;;;5043731;28;20205;-91
2021/05/16 09:57:36;;;;;;;6.20;3.27;;;11.90;99.90;;;;;;5043728;28;20232;-91
2021/05/16 10:00:09;;;;;;;6.77;3.20;;;11.90;99.90;;;;;;5043302;28;20221;-90
2021/05/16 10:02:41;;;;;;;6.77;2.90;;;11.90;99.90;;;;;;5044408;28;20561;-90
2021/05/16 10:05:15;;;;;;;8.30;3.20;;;11.80;99.90;;;;;;5045343;28;20216;-90
2021/05/16 10:07:46;;;;;;;6.47;2.97;;;11.80;99.90;;;;;;5044456;28;20244;-90
2021/05/16 10:10:17;;;;;;;6.90;3.13;;;11.80;99.90;;;;;;5054527;28;20205;-91
2021/05/16 10:12:49;;;;;;;7.83;3.33;;;11.80;99.90;;;;;;5036146;28;20285;-90
2021/05/16 10:15:23;;;;;;;3.43;3.10;;;11.80;99.90;;;;;;5031834;28;20216;-90
2021/05/16 10:17:56;;;;;;;5.50;3.20;;;11.80;99.90;;;;;;5022694;28;20216;-90
2021/05/16 10:20:32;;;;;;;5.73;2.80;;;11.80;99.90;;;;;;5023360;28;20280;-91
2021/05/16 10:23:03;;;;;;;5.80;3.57;;;11.70;99.90;;;;;;5023683;28;20624;-90
2021/05/16 10:25:42;;;;;;;5.57;3.27;;;11.70;99.90;;;;;;5028128;28;20209;-89
2021/05/16 10:28:16;;;;;;;5.67;3.13;;;11.60;99.90;;;;;;5032968;28;20214;-90
2021/05/16 10:31:02;;;;;;;5.97;3.40;;;11.60;99.90;;;;;;5025710;28;20198;-91
2021/05/16 10:33:33;;;;;;;6.03;3.47;;;11.60;99.90;;;;;;5029024;28;20202;-89
2021/05/16 10:36:05;;;;;;;6.40;3.53;;;11.50;99.90;;;;;;5046823;28;20233;-90
2021/05/16 10:38:37;;;;;;;7.27;3.60;;;11.50;99.90;;;;;;5042250;28;20243;-91
2021/05/16 10:41:25;;;;;;;4.07;3.53;;;11.40;99.90;;;;;;5023966;28;20262;-90
2021/05/16 10:44:31;;;;;;;4.67;3.43;;;11.40;99.90;;;;;;5039559;28;20284;-90
2021/05/16 10:47:02;;;;;;;6.43;3.33;;;11.40;99.90;;;;;;5036937;28;20220;-90
2021/05/16 10:49:35;;;;;;;5.83;3.30;;;11.40;99.90;;;;;;5035238;28;20251;-91
2021/05/16 10:52:30;;;;;;;5.57;3.47;;;11.40;99.90;;;;;;5034602;28;20292;-88
2021/05/16 10:55:01;;;;;;;6.80;4.07;;;11.30;99.90;;;;;;5034652;28;20303;-91
2021/05/16 10:57:38;;;;;;;9.53;4.13;;;11.20;99.90;;;;;;5038204;28;20232;-90
2021/05/16 11:00:34;;;;;;;6.17;3.37;;;11.20;99.90;;;;;;5037708;28;20216;-90
2021/05/16 11:03:08;;;;;;;5.73;3.80;;;11.20;99.90;;;;;;5038644;28;20556;-89
2021/05/16 11:05:59;;;;;;;5.33;3.30;;;11.20;99.90;;;;;;5020904;28;20213;-90
2021/05/16 11:09:09;;;;;;;5.13;3.70;;;11.10;99.90;;;;;;5038803;28;20255;-90
2021/05/16 11:11:43;;;;;;;6.53;3.87;;;11.10;99.90;;;;;;5038145;28;20259;-90
2021/05/16 11:14:19;;;;;;;7.20;4.10;;;11.10;99.90;;;;;;5021492;28;20723;-90
2021/05/16 11:16:57;;;;;;;6.27;3.60;;;11.10;99.90;;;;;;5021093;28;20255;-90
2021/05/16 11:19:31;;;;;;;7.93;3.77;;;11.20;99.90;;;;;;5046518;28;20215;-90
2021/05/16 11:22:13;;;;;;;5.93;4.10;;;11.10;99.90;;;;;;5038352;28;20204;-90
2021/05/16 11:24:51;;;;;;;6.10;3.53;;;11.10;99.90;;;;;;5039854;28;20209;-90
2021/05/16 11:27:39;;;;;;;7.73;4.37;;;11.10;99.90;;;;;;5049737;28;20215;-90
2021/05/16 11:30:12;;;;;;;6.93;4.07;;;11.00;99.90;;;;;;5058668;28;20197;-91
2021/05/16 11:32:44;;;;;;;7.60;3.80;;;11.00;99.90;;;;;;5058182;28;20213;-90
2021/05/16 11:35:18;;;;;;;11.20;4.73;;;10.90;99.90;;;;;;5055505;28;20205;-90
2021/05/16 11:37:51;;;;;;;8.00;4.23;;;10.90;99.90;;;;;;5035483;28;20299;-91
2021/05/16 11:40:28;;;;;;;8.87;4.77;;;10.90;99.90;;;;;;5052181;28;20209;-91
2021/05/16 11:43:06;;;;;;;5.87;4.20;;;11.00;99.90;;;;;;5027429;28;20310;-90
2021/05/16 11:45:38;;;;;;;9.43;4.17;;;11.00;99.90;;;;;;5038389;28;20212;-90
2021/05/16 11:48:30;;;;;;;6.33;3.97;;;11.00;99.90;;;;;;5038341;28;20248;-90
2021/05/16 11:51:08;;;;;;;7.63;4.57;;;11.00;99.90;;;;;;5037024;28;20662;-90
2021/05/16 11:53:39;;;;;;;8.13;3.90;;;10.90;99.90;;;;;;5037809;28;20291;-91
2021/05/16 11:56:15;;;;;;;5.27;3.43;;;10.90;99.90;;;;;;5037017;28;20316;-90
2021/05/16 11:58:49;;;;;;;8.27;3.40;;;10.90;99.90;;;;;;5038255;28;20266;-90
2021/05/16 12:01:21;;;;;;;4.33;3.43;;;10.90;99.90;;;;;;5039037;28;20209;-90
2021/05/16 12:04:00;;;;;;;5.60;3.90;;;10.90;99.90;;;;;;5037366;28;20271;-90
2021/05/16 12:06:32;;;;;;;4.70;3.63;;;10.90;99.90;;;;;;5040323;28;20231;-90
2021/05/16 12:09:09;;;;;;;4.83;3.53;;;10.90;99.90;;;;;;5036418;28;20684;-90
2021/05/16 12:11:40;;;;;;;6.77;3.83;;;10.90;99.90;;;;;;5038212;28;20212;-90
2021/05/16 12:14:15;;;;;;;6.57;4.47;;;10.80;99.90;;;;;;5036876;28;20498;-89
2021/05/16 12:16:53;;;;;;;6.00;4.40;;;10.80;99.90;;;;;;5040211;28;20254;-90
2021/05/16 12:19:27;;;;;;;8.53;4.73;;;10.80;99.90;;;;;;5037362;28;20629;-89
2021/05/16 12:21:59;;;;;;;8.30;4.77;;;10.70;99.90;;;;;;5036596;28;20670;-90
2021/05/16 12:24:34;;;;;;;8.17;4.67;;;10.60;99.90;;;;;;5037757;28;20274;-90
2021/05/16 12:27:07;;;;;;;5.60;4.33;;;10.60;99.90;;;;;;5037663;28;20209;-90
2021/05/16 12:29:38;;;;;;;8.63;4.40;;;10.70;99.90;;;;;;5055015;28;20204;-90
2021/05/16 12:32:09;;;;;;;4.80;4.07;;;10.60;99.90;;;;;;5055015;28;20205;-91
2021/05/16 12:34:46;;;;;;;6.47;4.63;;;10.70;99.90;;;;;;5052681;28;20251;-90
2021/05/16 12:37:19;;;;;;;6.67;4.40;;;10.70;99.90;;;;;;5038236;28;20605;-90
2021/05/16 12:39:51;;;;;;;9.07;4.77;;;10.70;99.90;;;;;;5037821;28;20300;-90
2021/05/16 12:42:27;;;;;;;7.87;4.90;;;10.70;99.90;;;;;;5036157;28;20236;-90
2021/05/16 12:45:13;;;;;;;9.20;4.30;;;10.80;99.90;;;;;;5036553;28;20215;-91
2021/05/16 12:47:56;;;;;;;7.63;4.47;;;10.70;99.90;;;;;;5036313;28;20276;-90
2021/05/16 12:50:37;;;;;;;8.63;4.50;;;10.70;99.90;;;;;;5035862;28;20886;-90
2021/05/16 12:53:28;;;;;;;5.70;4.60;;;10.60;99.90;;;;;;5036217;28;20265;-90
2021/05/16 12:56:12;;;;;;;6.50;4.83;;;10.60;99.90;;;;;;5036440;28;20208;-91
2021/05/16 12:58:55;;;;;;;7.90;4.23;;;10.70;99.90;;;;;;5036468;28;20220;-90
2021/05/16 13:01:28;;;;;;;9.83;4.33;;;10.60;99.90;;;;;;5034847;28;20232;-90
2021/05/16 13:04:01;;;;;;;5.77;4.27;;;10.60;99.90;;;;;;5035971;28;20681;-89
2021/05/16 13:06:40;;;;;;;7.50;4.10;;;10.70;99.90;;;;;;5019748;28;20201;-90
2021/05/16 13:09:12;;;;;;;6.80;4.00;;;10.70;99.90;;;;;;5035683;28;20217;-90
2021/05/16 13:11:49;;;;;;;6.27;4.43;;;10.70;99.90;;;;;;5034752;28;20216;-90
2021/05/16 13:14:28;;;;;;;8.43;5.10;;;10.70;99.90;;;;;;5017943;28;20208;-89
2021/05/16 13:17:10;;;;;;;8.70;4.83;;;10.70;99.90;;;;;;5035160;28;20279;-90